Delphos, Kansas
Current Conditions -  °F | °C
As of 10:55 AM on Tuesday 27 Jan 2015 (Local Time) from KCNK Reporting Station
Clear Clear  
Wind Chill: 54°   Ceiling: Unl
Heat Index: 54°   Visibility: 10mi
Dew Point: 34°   Wind: 20mph
Humidity: 47%   Direction: 150°SSE
Pressure: 30.09"   Gusts: NA
Location:  39.27°N, 97.77°W
Report Text: KCNK 271655Z AUTO 15017KT 10SM CLR 12/01 A3009 RMK AO2 SLP190 T01220011
Loading
Personal Weather Stations






























Interactive Weather Map New forecast layout! Learn more

10-Day Weather Forecast

Advertisements
Track Severe Weather on mobile